sensor_id;sensor_type;location;lat;lon;timestamp;pressure;altitude;pressure_sealevel;temperature
43802;BMP280;29429;51.074;13.764;2024-02-14T00:01:07;100400.47;;;3.06
43802;BMP280;29429;51.074;13.764;2024-02-14T00:03:37;100398.81;;;3.15
43802;BMP280;29429;51.074;13.764;2024-02-14T00:06:05;100399.34;;;3.18
43802;BMP280;29429;51.074;13.764;2024-02-14T00:08:33;100404.22;;;3.23
43802;BMP280;29429;51.074;13.764;2024-02-14T00:11:00;100392.28;;;3.28
43802;BMP280;29429;51.074;13.764;2024-02-14T00:13:27;100390.84;;;3.34
43802;BMP280;29429;51.074;13.764;2024-02-14T00:15:54;100388.47;;;3.40
43802;BMP280;29429;51.074;13.764;2024-02-14T00:18:23;100392.19;;;3.47
43802;BMP280;29429;51.074;13.764;2024-02-14T00:20:50;100390.97;;;3.51
43802;BMP280;29429;51.074;13.764;2024-02-14T00:23:17;100387.44;;;3.60
43802;BMP280;29429;51.074;13.764;2024-02-14T00:25:44;100386.47;;;3.61
43802;BMP280;29429;51.074;13.764;2024-02-14T00:28:11;100389.34;;;3.68
43802;BMP280;29429;51.074;13.764;2024-02-14T00:30:39;100386.31;;;3.73
43802;BMP280;29429;51.074;13.764;2024-02-14T00:33:06;100387.94;;;3.74
43802;BMP280;29429;51.074;13.764;2024-02-14T00:35:34;100382.38;;;3.77
43802;BMP280;29429;51.074;13.764;2024-02-14T00:38:01;100377.78;;;3.79
43802;BMP280;29429;51.074;13.764;2024-02-14T00:40:28;100377.88;;;3.87
43802;BMP280;29429;51.074;13.764;2024-02-14T00:42:55;100379.28;;;3.91
43802;BMP280;29429;51.074;13.764;2024-02-14T00:45:22;100380.34;;;3.98
43802;BMP280;29429;51.074;13.764;2024-02-14T00:47:48;100377.97;;;4.04
43802;BMP280;29429;51.074;13.764;2024-02-14T00:50:16;100386.09;;;4.11
43802;BMP280;29429;51.074;13.764;2024-02-14T00:52:43;100384.69;;;4.16
43802;BMP280;29429;51.074;13.764;2024-02-14T00:55:10;100392.00;;;4.22
43802;BMP280;29429;51.074;13.764;2024-02-14T00:57:38;100391.56;;;4.27
43802;BMP280;29429;51.074;13.764;2024-02-14T01:00:06;100401.53;;;4.33
43802;BMP280;29429;51.074;13.764;2024-02-14T01:02:34;100399.44;;;4.37
43802;BMP280;29429;51.074;13.764;2024-02-14T01:05:01;100397.97;;;4.42
43802;BMP280;29429;51.074;13.764;2024-02-14T01:07:28;100394.38;;;4.43
43802;BMP280;29429;51.074;13.764;2024-02-14T01:09:55;100391.59;;;4.45
43802;BMP280;29429;51.074;13.764;2024-02-14T01:12:22;100385.50;;;4.44
43802;BMP280;29429;51.074;13.764;2024-02-14T01:14:49;100385.63;;;4.43
43802;BMP280;29429;51.074;13.764;2024-02-14T01:17:16;100387.41;;;4.42
43802;BMP280;29429;51.074;13.764;2024-02-14T01:19:43;100386.44;;;4.43
43802;BMP280;29429;51.074;13.764;2024-02-14T01:22:10;100375.75;;;4.45
43802;BMP280;29429;51.074;13.764;2024-02-14T01:24:37;100386.16;;;4.46
43802;BMP280;29429;51.074;13.764;2024-02-14T01:27:04;100383.53;;;4.46
43802;BMP280;29429;51.074;13.764;2024-02-14T01:29:32;100384.19;;;4.48
43802;BMP280;29429;51.074;13.764;2024-02-14T01:31:59;100385.56;;;4.52
43802;BMP280;29429;51.074;13.764;2024-02-14T01:34:26;100380.78;;;4.56
43802;BMP280;29429;51.074;13.764;2024-02-14T01:36:55;100394.53;;;4.59
43802;BMP280;29429;51.074;13.764;2024-02-14T01:39:22;100385.50;;;4.62
43802;BMP280;29429;51.074;13.764;2024-02-14T01:41:49;100377.41;;;4.63
43802;BMP280;29429;51.074;13.764;2024-02-14T01:44:17;100377.09;;;4.66
43802;BMP280;29429;51.074;13.764;2024-02-14T01:46:44;100379.44;;;4.69
43802;BMP280;29429;51.074;13.764;2024-02-14T01:49:12;100384.72;;;4.69
43802;BMP280;29429;51.074;13.764;2024-02-14T01:51:42;100373.47;;;4.67
43802;BMP280;29429;51.074;13.764;2024-02-14T01:54:12;100374.75;;;4.63
43802;BMP280;29429;51.074;13.764;2024-02-14T01:56:42;100372.09;;;4.63
43802;BMP280;29429;51.074;13.764;2024-02-14T01:59:09;100369.63;;;4.62
43802;BMP280;29429;51.074;13.764;2024-02-14T02:01:36;100368.81;;;4.61
43802;BMP280;29429;51.074;13.764;2024-02-14T02:04:04;100359.06;;;4.62
43802;BMP280;29429;51.074;13.764;2024-02-14T02:06:31;100352.94;;;4.61
43802;BMP280;29429;51.074;13.764;2024-02-14T02:09:00;100360.88;;;4.61
43802;BMP280;29429;51.074;13.764;2024-02-14T02:11:27;100353.13;;;4.60
43802;BMP280;29429;51.074;13.764;2024-02-14T02:13:55;100357.72;;;4.58
43802;BMP280;29429;51.074;13.764;2024-02-14T02:16:22;100366.09;;;4.53
43802;BMP280;29429;51.074;13.764;2024-02-14T02:18:49;100366.69;;;4.47
43802;BMP280;29429;51.074;13.764;2024-02-14T02:21:17;100361.72;;;4.44
43802;BMP280;29429;51.074;13.764;2024-02-14T02:23:47;100361.72;;;4.44
43802;BMP280;29429;51.074;13.764;2024-02-14T02:26:14;100359.09;;;4.44
43802;BMP280;29429;51.074;13.764;2024-02-14T02:28:41;100362.56;;;4.45
43802;BMP280;29429;51.074;13.764;2024-02-14T02:31:09;100364.38;;;4.44
43802;BMP280;29429;51.074;13.764;2024-02-14T02:33:36;100357.41;;;4.43
43802;BMP280;29429;51.074;13.764;2024-02-14T02:36:04;100358.91;;;4.46
43802;BMP280;29429;51.074;13.764;2024-02-14T02:38:33;100347.22;;;4.48
43802;BMP280;29429;51.074;13.764;2024-02-14T02:41:00;100353.19;;;4.50
43802;BMP280;29429;51.074;13.764;2024-02-14T02:43:27;100342.78;;;4.49
43802;BMP280;29429;51.074;13.764;2024-02-14T02:45:55;100351.16;;;4.44
43802;BMP280;29429;51.074;13.764;2024-02-14T02:48:22;100345.88;;;4.44
43802;BMP280;29429;51.074;13.764;2024-02-14T02:50:51;100351.44;;;4.41
43802;BMP280;29429;51.074;13.764;2024-02-14T02:53:19;100345.63;;;4.38
43802;BMP280;29429;51.074;13.764;2024-02-14T02:55:46;100350.78;;;4.39
43802;BMP280;29429;51.074;13.764;2024-02-14T02:58:12;100341.84;;;4.40
43802;BMP280;29429;51.074;13.764;2024-02-14T03:00:40;100335.63;;;4.41
43802;BMP280;29429;51.074;13.764;2024-02-14T03:03:08;100337.59;;;4.39
43802;BMP280;29429;51.074;13.764;2024-02-14T03:05:35;100327.69;;;4.41
43802;BMP280;29429;51.074;13.764;2024-02-14T03:08:03;100330.88;;;4.45
43802;BMP280;29429;51.074;13.764;2024-02-14T03:10:30;100323.44;;;4.48
43802;BMP280;29429;51.074;13.764;2024-02-14T03:12:57;100322.84;;;4.54
43802;BMP280;29429;51.074;13.764;2024-02-14T03:15:24;100323.53;;;4.56
43802;BMP280;29429;51.074;13.764;2024-02-14T03:17:52;100325.19;;;4.57
43802;BMP280;29429;51.074;13.764;2024-02-14T03:20:20;100323.22;;;4.59
43802;BMP280;29429;51.074;13.764;2024-02-14T03:22:47;100327.66;;;4.59
43802;BMP280;29429;51.074;13.764;2024-02-14T03:25:20;100325.69;;;4.61
43802;BMP280;29429;51.074;13.764;2024-02-14T03:27:47;100326.53;;;4.61
43802;BMP280;29429;51.074;13.764;2024-02-14T03:30:19;100328.50;;;4.59
43802;BMP280;29429;51.074;13.764;2024-02-14T03:32:47;100327.97;;;4.56
43802;BMP280;29429;51.074;13.764;2024-02-14T03:35:14;100330.31;;;4.59
43802;BMP280;29429;51.074;13.764;2024-02-14T03:37:42;100327.84;;;4.57
43802;BMP280;29429;51.074;13.764;2024-02-14T03:40:10;100328.81;;;4.56
43802;BMP280;29429;51.074;13.764;2024-02-14T03:42:38;100325.50;;;4.54
43802;BMP280;29429;51.074;13.764;2024-02-14T03:45:08;100327.84;;;4.57
43802;BMP280;29429;51.074;13.764;2024-02-14T03:47:35;100317.13;;;4.59
43802;BMP280;29429;51.074;13.764;2024-02-14T03:50:08;100317.34;;;4.65
43802;BMP280;29429;51.074;13.764;2024-02-14T03:52:35;100313.41;;;4.69
43802;BMP280;29429;51.074;13.764;2024-02-14T03:55:04;100315.28;;;4.77
43802;BMP280;29429;51.074;13.764;2024-02-14T03:57:32;100318.16;;;4.83
43802;BMP280;29429;51.074;13.764;2024-02-14T04:00:00;100318.19;;;4.91
43802;BMP280;29429;51.074;13.764;2024-02-14T04:02:37;100317.06;;;4.94
43802;BMP280;29429;51.074;13.764;2024-02-14T04:05:07;100308.53;;;5.00
43802;BMP280;29429;51.074;13.764;2024-02-14T04:07:35;100301.75;;;5.06
43802;BMP280;29429;51.074;13.764;2024-02-14T04:10:04;100295.50;;;5.07
43802;BMP280;29429;51.074;13.764;2024-02-14T04:12:32;100297.16;;;5.08
43802;BMP280;29429;51.074;13.764;2024-02-14T04:14:59;100291.72;;;5.09
43802;BMP280;29429;51.074;13.764;2024-02-14T04:17:26;100294.06;;;5.12
43802;BMP280;29429;51.074;13.764;2024-02-14T04:19:53;100291.59;;;5.11
43802;BMP280;29429;51.074;13.764;2024-02-14T04:22:20;100293.88;;;5.14
43802;BMP280;29429;51.074;13.764;2024-02-14T04:24:48;100285.66;;;5.17
43802;BMP280;29429;51.074;13.764;2024-02-14T04:27:14;100288.63;;;5.22
43802;BMP280;29429;51.074;13.764;2024-02-14T04:29:46;100285.69;;;5.25
43802;BMP280;29429;51.074;13.764;2024-02-14T04:32:14;100289.34;;;5.24
43802;BMP280;29429;51.074;13.764;2024-02-14T04:34:41;100290.97;;;5.25
43802;BMP280;29429;51.074;13.764;2024-02-14T04:37:10;100291.34;;;5.30
43802;BMP280;29429;51.074;13.764;2024-02-14T04:39:41;100297.31;;;5.32
43802;BMP280;29429;51.074;13.764;2024-02-14T04:42:09;100286.03;;;5.30
43802;BMP280;29429;51.074;13.764;2024-02-14T04:44:36;100282.75;;;5.28
43802;BMP280;29429;51.074;13.764;2024-02-14T04:47:03;100280.88;;;5.20
43802;BMP280;29429;51.074;13.764;2024-02-14T04:49:30;100285.47;;;5.10
43802;BMP280;29429;51.074;13.764;2024-02-14T04:51:58;100289.25;;;5.08
43802;BMP280;29429;51.074;13.764;2024-02-14T04:54:25;100285.53;;;5.01
43802;BMP280;29429;51.074;13.764;2024-02-14T04:56:54;100287.53;;;4.99
43802;BMP280;29429;51.074;13.764;2024-02-14T04:59:26;100284.81;;;4.90
43802;BMP280;29429;51.074;13.764;2024-02-14T05:01:53;100282.78;;;4.84
43802;BMP280;29429;51.074;13.764;2024-02-14T05:04:21;100283.19;;;4.72
43802;BMP280;29429;51.074;13.764;2024-02-14T05:06:49;100283.84;;;4.66
43802;BMP280;29429;51.074;13.764;2024-02-14T05:09:18;100289.56;;;4.61
43802;BMP280;29429;51.074;13.764;2024-02-14T05:11:45;100297.41;;;4.53
43802;BMP280;29429;51.074;13.764;2024-02-14T05:14:12;100298.84;;;4.48
43802;BMP280;29429;51.074;13.764;2024-02-14T05:16:39;100300.00;;;4.45
43802;BMP280;29429;51.074;13.764;2024-02-14T05:19:06;100293.38;;;4.41
43802;BMP280;29429;51.074;13.764;2024-02-14T05:21:33;100293.00;;;4.36
43802;BMP280;29429;51.074;13.764;2024-02-14T05:24:01;100291.31;;;4.35
43802;BMP280;29429;51.074;13.764;2024-02-14T05:26:28;100301.22;;;4.33
43802;BMP280;29429;51.074;13.764;2024-02-14T05:28:55;100290.66;;;4.33
43802;BMP280;29429;51.074;13.764;2024-02-14T05:31:22;100288.69;;;4.35
43802;BMP280;29429;51.074;13.764;2024-02-14T05:33:53;100287.56;;;4.38
43802;BMP280;29429;51.074;13.764;2024-02-14T05:36:21;100283.09;;;4.38
43802;BMP280;29429;51.074;13.764;2024-02-14T05:38:52;100280.00;;;4.43
43802;BMP280;29429;51.074;13.764;2024-02-14T05:41:19;100284.16;;;4.45
43802;BMP280;29429;51.074;13.764;2024-02-14T05:43:46;100274.66;;;4.52
43802;BMP280;29429;51.074;13.764;2024-02-14T05:46:14;100274.19;;;4.57
43802;BMP280;29429;51.074;13.764;2024-02-14T05:48:41;100272.06;;;4.60
43802;BMP280;29429;51.074;13.764;2024-02-14T05:51:09;100262.53;;;4.67
43802;BMP280;29429;51.074;13.764;2024-02-14T05:53:36;100264.56;;;4.73
43802;BMP280;29429;51.074;13.764;2024-02-14T05:56:03;100252.09;;;4.83
43802;BMP280;29429;51.074;13.764;2024-02-14T05:58:30;100255.63;;;4.92
43802;BMP280;29429;51.074;13.764;2024-02-14T06:00:58;100249.69;;;4.98
43802;BMP280;29429;51.074;13.764;2024-02-14T06:03:25;100245.59;;;5.04
43802;BMP280;29429;51.074;13.764;2024-02-14T06:05:52;100244.97;;;5.10
43802;BMP280;29429;51.074;13.764;2024-02-14T06:08:20;100247.81;;;5.16
43802;BMP280;29429;51.074;13.764;2024-02-14T06:10:47;100243.69;;;5.22
43802;BMP280;29429;51.074;13.764;2024-02-14T06:13:15;100249.19;;;5.28
43802;BMP280;29429;51.074;13.764;2024-02-14T06:15:42;100243.13;;;5.36
43802;BMP280;29429;51.074;13.764;2024-02-14T06:18:09;100248.25;;;5.37
43802;BMP280;29429;51.074;13.764;2024-02-14T06:20:37;100253.56;;;5.45
43802;BMP280;29429;51.074;13.764;2024-02-14T06:23:07;100252.75;;;5.45
43802;BMP280;29429;51.074;13.764;2024-02-14T06:25:34;100263.81;;;5.48
43802;BMP280;29429;51.074;13.764;2024-02-14T06:28:01;100261.53;;;5.53
43802;BMP280;29429;51.074;13.764;2024-02-14T06:30:28;100263.84;;;5.57
43802;BMP280;29429;51.074;13.764;2024-02-14T06:32:59;100271.16;;;5.63
43802;BMP280;29429;51.074;13.764;2024-02-14T06:35:29;100273.31;;;5.67
43802;BMP280;29429;51.074;13.764;2024-02-14T06:37:57;100268.03;;;5.67
43802;BMP280;29429;51.074;13.764;2024-02-14T06:40:31;100264.41;;;5.68
43802;BMP280;29429;51.074;13.764;2024-02-14T06:42:58;100274.34;;;5.74
43802;BMP280;29429;51.074;13.764;2024-02-14T06:45:28;100270.06;;;5.81
43802;BMP280;29429;51.074;13.764;2024-02-14T06:47:55;100276.56;;;5.87
43802;BMP280;29429;51.074;13.764;2024-02-14T06:50:23;100268.78;;;5.93
43802;BMP280;29429;51.074;13.764;2024-02-14T06:52:52;100275.44;;;5.97
43802;BMP280;29429;51.074;13.764;2024-02-14T06:55:19;100272.13;;;6.03
43802;BMP280;29429;51.074;13.764;2024-02-14T06:57:46;100275.13;;;6.08
43802;BMP280;29429;51.074;13.764;2024-02-14T07:00:14;100275.94;;;6.17
43802;BMP280;29429;51.074;13.764;2024-02-14T07:02:41;100277.44;;;6.20
43802;BMP280;29429;51.074;13.764;2024-02-14T07:05:09;100276.13;;;6.24
43802;BMP280;29429;51.074;13.764;2024-02-14T07:07:39;100265.22;;;6.27
43802;BMP280;29429;51.074;13.764;2024-02-14T07:10:07;100260.06;;;6.33
43802;BMP280;29429;51.074;13.764;2024-02-14T07:12:34;100254.97;;;6.40
43802;BMP280;29429;51.074;13.764;2024-02-14T07:15:05;100256.59;;;6.41
43802;BMP280;29429;51.074;13.764;2024-02-14T07:17:32;100253.81;;;6.42
43802;BMP280;29429;51.074;13.764;2024-02-14T07:20:01;100247.00;;;6.48
43802;BMP280;29429;51.074;13.764;2024-02-14T07:22:28;100247.34;;;6.61
43802;BMP280;29429;51.074;13.764;2024-02-14T07:24:57;100243.19;;;6.66
43802;BMP280;29429;51.074;13.764;2024-02-14T07:27:24;100243.34;;;6.73
43802;BMP280;29429;51.074;13.764;2024-02-14T07:29:51;100252.28;;;6.80
43802;BMP280;29429;51.074;13.764;2024-02-14T07:32:18;100242.31;;;6.90
43802;BMP280;29429;51.074;13.764;2024-02-14T07:34:45;100228.88;;;6.92
43802;BMP280;29429;51.074;13.764;2024-02-14T07:37:13;100246.59;;;6.99
43802;BMP280;29429;51.074;13.764;2024-02-14T07:39:42;100238.50;;;7.01
43802;BMP280;29429;51.074;13.764;2024-02-14T07:42:09;100235.16;;;7.07
43802;BMP280;29429;51.074;13.764;2024-02-14T07:44:36;100232.47;;;7.15
43802;BMP280;29429;51.074;13.764;2024-02-14T07:47:03;100224.31;;;7.24
43802;BMP280;29429;51.074;13.764;2024-02-14T07:49:33;100227.06;;;7.39
43802;BMP280;29429;51.074;13.764;2024-02-14T07:52:00;100222.34;;;7.57
43802;BMP280;29429;51.074;13.764;2024-02-14T07:54:27;100216.16;;;7.73
43802;BMP280;29429;51.074;13.764;2024-02-14T07:56:54;100213.00;;;7.92
43802;BMP280;29429;51.074;13.764;2024-02-14T07:59:21;100217.88;;;8.11
43802;BMP280;29429;51.074;13.764;2024-02-14T08:01:48;100210.13;;;8.24
43802;BMP280;29429;51.074;13.764;2024-02-14T08:04:15;100203.44;;;8.36
43802;BMP280;29429;51.074;13.764;2024-02-14T08:06:46;100199.81;;;8.52
43802;BMP280;29429;51.074;13.764;2024-02-14T08:09:13;100189.72;;;8.62
43802;BMP280;29429;51.074;13.764;2024-02-14T08:11:41;100188.94;;;8.76
43802;BMP280;29429;51.074;13.764;2024-02-14T08:14:08;100180.69;;;8.86
43802;BMP280;29429;51.074;13.764;2024-02-14T08:16:35;100194.63;;;9.02
43802;BMP280;29429;51.074;13.764;2024-02-14T08:19:02;100193.25;;;9.06
43802;BMP280;29429;51.074;13.764;2024-02-14T08:21:30;100186.34;;;9.12
43802;BMP280;29429;51.074;13.764;2024-02-14T08:23:58;100191.31;;;9.15
43802;BMP280;29429;51.074;13.764;2024-02-14T08:26:28;100192.78;;;9.17
43802;BMP280;29429;51.074;13.764;2024-02-14T08:28:55;100185.25;;;9.21
43802;BMP280;29429;51.074;13.764;2024-02-14T08:31:23;100189.00;;;9.27
43802;BMP280;29429;51.074;13.764;2024-02-14T08:33:50;100177.72;;;9.39
43802;BMP280;29429;51.074;13.764;2024-02-14T08:36:17;100177.97;;;9.44
43802;BMP280;29429;51.074;13.764;2024-02-14T08:38:47;100165.19;;;9.54
43802;BMP280;29429;51.074;13.764;2024-02-14T08:41:15;100162.41;;;9.62
43802;BMP280;29429;51.074;13.764;2024-02-14T08:43:42;100161.66;;;9.68
43802;BMP280;29429;51.074;13.764;2024-02-14T08:46:13;100167.00;;;9.68
43802;BMP280;29429;51.074;13.764;2024-02-14T08:48:42;100162.41;;;9.62
43802;BMP280;29429;51.074;13.764;2024-02-14T08:51:16;100160.94;;;9.60
43802;BMP280;29429;51.074;13.764;2024-02-14T08:53:44;100172.69;;;9.65
43802;BMP280;29429;51.074;13.764;2024-02-14T08:56:13;100174.31;;;9.66
43802;BMP280;29429;51.074;13.764;2024-02-14T08:58:41;100165.69;;;9.64
43802;BMP280;29429;51.074;13.764;2024-02-14T09:01:08;100170.75;;;9.74
43802;BMP280;29429;51.074;13.764;2024-02-14T09:03:45;100178.97;;;9.79
43802;BMP280;29429;51.074;13.764;2024-02-14T09:06:17;100175.59;;;9.70
43802;BMP280;29429;51.074;13.764;2024-02-14T09:08:47;100173.72;;;9.86
43802;BMP280;29429;51.074;13.764;2024-02-14T09:11:15;100156.84;;;10.00
43802;BMP280;29429;51.074;13.764;2024-02-14T09:13:42;100168.63;;;10.12
43802;BMP280;29429;51.074;13.764;2024-02-14T09:16:10;100160.78;;;10.25
43802;BMP280;29429;51.074;13.764;2024-02-14T09:18:38;100165.19;;;10.32
43802;BMP280;29429;51.074;13.764;2024-02-14T09:21:06;100166.06;;;10.46
43802;BMP280;29429;51.074;13.764;2024-02-14T09:23:33;100164.31;;;10.53
43802;BMP280;29429;51.074;13.764;2024-02-14T09:26:01;100171.72;;;10.58
43802;BMP280;29429;51.074;13.764;2024-02-14T09:28:29;100164.19;;;10.68
43802;BMP280;29429;51.074;13.764;2024-02-14T09:30:56;100163.06;;;10.83
43802;BMP280;29429;51.074;13.764;2024-02-14T09:33:23;100166.41;;;10.92
43802;BMP280;29429;51.074;13.764;2024-02-14T09:35:50;100162.13;;;10.97
43802;BMP280;29429;51.074;13.764;2024-02-14T09:38:19;100175.25;;;10.99
43802;BMP280;29429;51.074;13.764;2024-02-14T09:40:46;100168.91;;;11.00
43802;BMP280;29429;51.074;13.764;2024-02-14T09:43:54;100173.88;;;11.03
43802;BMP280;29429;51.074;13.764;2024-02-14T09:46:24;100180.25;;;11.09
43802;BMP280;29429;51.074;13.764;2024-02-14T09:48:56;100170.81;;;11.13
43802;BMP280;29429;51.074;13.764;2024-02-14T09:51:24;100170.44;;;11.16
43802;BMP280;29429;51.074;13.764;2024-02-14T09:53:54;100174.97;;;11.22
43802;BMP280;29429;51.074;13.764;2024-02-14T09:56:22;100173.16;;;11.22
43802;BMP280;29429;51.074;13.764;2024-02-14T09:58:50;100169.25;;;11.25
43802;BMP280;29429;51.074;13.764;2024-02-14T10:01:23;100177.50;;;11.30
43802;BMP280;29429;51.074;13.764;2024-02-14T10:03:51;100169.09;;;11.33
43802;BMP280;29429;51.074;13.764;2024-02-14T10:06:19;100177.09;;;11.33
43802;BMP280;29429;51.074;13.764;2024-02-14T10:08:47;100174.22;;;11.34
43802;BMP280;29429;51.074;13.764;2024-02-14T10:11:31;100174.66;;;11.38
43802;BMP280;29429;51.074;13.764;2024-02-14T10:13:59;100181.03;;;11.43
43802;BMP280;29429;51.074;13.764;2024-02-14T10:16:32;100179.44;;;11.49
43802;BMP280;29429;51.074;13.764;2024-02-14T10:18:59;100173.25;;;11.55
43802;BMP280;29429;51.074;13.764;2024-02-14T10:21:27;100173.47;;;11.60
43802;BMP280;29429;51.074;13.764;2024-02-14T10:24:00;100178.63;;;11.61
43802;BMP280;29429;51.074;13.764;2024-02-14T10:26:28;100177.81;;;11.68
43802;BMP280;29429;51.074;13.764;2024-02-14T10:28:57;100177.66;;;11.69
43802;BMP280;29429;51.074;13.764;2024-02-14T10:31:25;100174.34;;;11.67
43802;BMP280;29429;51.074;13.764;2024-02-14T10:33:55;100177.00;;;11.67
43802;BMP280;29429;51.074;13.764;2024-02-14T10:36:23;100175.34;;;11.66
43802;BMP280;29429;51.074;13.764;2024-02-14T10:38:51;100170.41;;;11.63
43802;BMP280;29429;51.074;13.764;2024-02-14T10:41:18;100176.78;;;11.62
43802;BMP280;29429;51.074;13.764;2024-02-14T10:43:45;100168.97;;;11.60
43802;BMP280;29429;51.074;13.764;2024-02-14T10:46:20;100166.72;;;11.64
43802;BMP280;29429;51.074;13.764;2024-02-14T10:49:02;100165.06;;;11.63
43802;BMP280;29429;51.074;13.764;2024-02-14T10:51:34;100169.78;;;11.68
43802;BMP280;29429;51.074;13.764;2024-02-14T10:54:10;100167.13;;;11.68
43802;BMP280;29429;51.074;13.764;2024-02-14T10:56:43;100166.97;;;11.69
43802;BMP280;29429;51.074;13.764;2024-02-14T10:59:16;100164.09;;;11.71
43802;BMP280;29429;51.074;13.764;2024-02-14T11:01:45;100163.91;;;11.72
43802;BMP280;29429;51.074;13.764;2024-02-14T11:04:14;100163.06;;;11.72
43802;BMP280;29429;51.074;13.764;2024-02-14T11:06:46;100159.38;;;11.73
43802;BMP280;29429;51.074;13.764;2024-02-14T11:09:14;100154.03;;;11.73
43802;BMP280;29429;51.074;13.764;2024-02-14T11:11:43;100151.16;;;11.74
43802;BMP280;29429;51.074;13.764;2024-02-14T11:14:18;100140.25;;;11.76
43802;BMP280;29429;51.074;13.764;2024-02-14T11:16:46;100141.28;;;11.81
43802;BMP280;29429;51.074;13.764;2024-02-14T11:19:13;100148.28;;;11.89
43802;BMP280;29429;51.074;13.764;2024-02-14T11:21:46;100140.91;;;11.97
43802;BMP280;29429;51.074;13.764;2024-02-14T11:24:15;100147.50;;;12.08
43802;BMP280;29429;51.074;13.764;2024-02-14T11:26:51;100134.97;;;12.21
43802;BMP280;29429;51.074;13.764;2024-02-14T11:29:20;100141.97;;;12.36
43802;BMP280;29429;51.074;13.764;2024-02-14T11:32:01;100132.28;;;12.48
43802;BMP280;29429;51.074;13.764;2024-02-14T11:34:29;100124.03;;;12.56
43802;BMP280;29429;51.074;13.764;2024-02-14T11:37:04;100124.41;;;12.66
43802;BMP280;29429;51.074;13.764;2024-02-14T11:39:33;100123.78;;;12.77
43802;BMP280;29429;51.074;13.764;2024-02-14T11:42:01;100120.66;;;12.93
43802;BMP280;29429;51.074;13.764;2024-02-14T11:44:28;100119.78;;;13.06
43802;BMP280;29429;51.074;13.764;2024-02-14T11:46:55;100118.56;;;13.15
43802;BMP280;29429;51.074;13.764;2024-02-14T11:49:23;100116.47;;;13.23
43802;BMP280;29429;51.074;13.764;2024-02-14T11:51:50;100126.53;;;13.28
43802;BMP280;29429;51.074;13.764;2024-02-14T11:54:21;100129.41;;;13.33
43802;BMP280;29429;51.074;13.764;2024-02-14T11:56:49;100129.56;;;13.45
43802;BMP280;29429;51.074;13.764;2024-02-14T11:59:16;100133.19;;;13.57
43802;BMP280;29429;51.074;13.764;2024-02-14T12:01:46;100130.69;;;13.62
43802;BMP280;29429;51.074;13.764;2024-02-14T12:04:15;100132.78;;;13.60
43802;BMP280;29429;51.074;13.764;2024-02-14T12:06:42;100133.19;;;13.57
43802;BMP280;29429;51.074;13.764;2024-02-14T12:09:11;100140.63;;;13.55
43802;BMP280;29429;51.074;13.764;2024-02-14T12:11:41;100140.28;;;13.45
43802;BMP280;29429;51.074;13.764;2024-02-14T12:14:12;100138.25;;;13.33
43802;BMP280;29429;51.074;13.764;2024-02-14T12:16:40;100134.56;;;13.28
43802;BMP280;29429;51.074;13.764;2024-02-14T12:19:13;100132.97;;;13.14
43802;BMP280;29429;51.074;13.764;2024-02-14T12:21:42;100126.81;;;13.00
43802;BMP280;29429;51.074;13.764;2024-02-14T12:24:15;100134.03;;;13.13
43802;BMP280;29429;51.074;13.764;2024-02-14T12:26:43;100132.53;;;13.23
43802;BMP280;29429;51.074;13.764;2024-02-14T12:29:13;100127.78;;;13.25
43802;BMP280;29429;51.074;13.764;2024-02-14T12:31:41;100134.16;;;13.31
43802;BMP280;29429;51.074;13.764;2024-02-14T12:34:11;100130.88;;;13.29
43802;BMP280;29429;51.074;13.764;2024-02-14T12:36:39;100129.00;;;13.29
43802;BMP280;29429;51.074;13.764;2024-02-14T12:39:06;100135.16;;;13.36
43802;BMP280;29429;51.074;13.764;2024-02-14T12:41:33;100126.06;;;13.37
43802;BMP280;29429;51.074;13.764;2024-02-14T12:44:02;100134.50;;;13.41
43802;BMP280;29429;51.074;13.764;2024-02-14T12:46:29;100118.38;;;13.48
43802;BMP280;29429;51.074;13.764;2024-02-14T12:48:56;100131.75;;;13.61
43802;BMP280;29429;51.074;13.764;2024-02-14T12:51:24;100129.00;;;13.67
43802;BMP280;29429;51.074;13.764;2024-02-14T12:53:55;100117.81;;;13.77
43802;BMP280;29429;51.074;13.764;2024-02-14T12:56:22;100125.00;;;13.83
43802;BMP280;29429;51.074;13.764;2024-02-14T12:58:50;100130.94;;;13.85
43802;BMP280;29429;51.074;13.764;2024-02-14T13:01:17;100122.53;;;13.81
43802;BMP280;29429;51.074;13.764;2024-02-14T13:03:45;100126.50;;;13.72
43802;BMP280;29429;51.074;13.764;2024-02-14T13:06:12;100121.19;;;13.66
43802;BMP280;29429;51.074;13.764;2024-02-14T13:08:41;100125.72;;;13.65
43802;BMP280;29429;51.074;13.764;2024-02-14T13:11:09;100126.75;;;13.64
43802;BMP280;29429;51.074;13.764;2024-02-14T13:13:36;100120.44;;;13.52
43802;BMP280;29429;51.074;13.764;2024-02-14T13:16:04;100131.75;;;13.54
43802;BMP280;29429;51.074;13.764;2024-02-14T13:18:33;100128.25;;;13.54
43802;BMP280;29429;51.074;13.764;2024-02-14T13:21:02;100123.69;;;13.61
43802;BMP280;29429;51.074;13.764;2024-02-14T13:23:30;100123.69;;;13.61
43802;BMP280;29429;51.074;13.764;2024-02-14T13:25:57;100132.72;;;13.66
43802;BMP280;29429;51.074;13.764;2024-02-14T13:28:25;100127.31;;;13.73
43802;BMP280;29429;51.074;13.764;2024-02-14T13:30:52;100122.97;;;13.78
43802;BMP280;29429;51.074;13.764;2024-02-14T13:33:23;100131.78;;;13.85
43802;BMP280;29429;51.074;13.764;2024-02-14T13:35:51;100123.47;;;13.93
43802;BMP280;29429;51.074;13.764;2024-02-14T13:38:18;100125.69;;;14.03
43802;BMP280;29429;51.074;13.764;2024-02-14T13:40:45;100126.28;;;14.05
43802;BMP280;29429;51.074;13.764;2024-02-14T13:43:12;100133.09;;;14.01
43802;BMP280;29429;51.074;13.764;2024-02-14T13:45:45;100127.16;;;13.99
43802;BMP280;29429;51.074;13.764;2024-02-14T13:48:13;100133.22;;;13.88
43802;BMP280;29429;51.074;13.764;2024-02-14T13:50:40;100132.88;;;13.78
43802;BMP280;29429;51.074;13.764;2024-02-14T13:53:09;100139.72;;;13.67
43802;BMP280;29429;51.074;13.764;2024-02-14T13:55:37;100136.44;;;13.65
43802;BMP280;29429;51.074;13.764;2024-02-14T13:58:06;100144.34;;;13.54